Terminal Aerodrome Forecast
Issued by NWS Quad Cities IA IL

Home | Current Version | Previous Version | Text Only | Print | Product List | Glossary On
Versions: 1 2 3 4 5 6 7 8 9 10 11 12 13 14 15 16 17 18 19 20 21 22 23 24 25 26 27 28 29 30 31 32 33 34 35 36 37 38 39
000
FTUS43 KDVN 281440 CCA
TAFMLI
TAF COR
KMLI 281440Z 2814/2912 08012KT 4SM BR SCT006 OVC010
      TEMPO 2814/2816 3SM -DZ BR BKN006
     FM281700 13007KT P6SM VCSH OVC025
     FM290100 04007KT 4SM BR OVC012
     FM290800 01006KT 4SM BR OVC010=

USA.gov is the U.S. government's official web portal to all federal, state and local government web resources and services.